Time;durP1;ratioP1;P1;durP2;ratioP2;P2;SDS_P1;SDS_P2;PMS_P1;PMS_P2;Temp;Humidity;BMP_temperature;BMP_pressure;BME280_temperature;BME280_humidity;BME280_pressure;Samples;Min_cycle;Max_cycle;Signal;HPM_P1;HPM_P2
2023/01/26 00:00:51;;;;;;;20.17;10.90;;;6.30;99.90;;;;;;4927166;29;20050;-78
2023/01/26 00:03:18;;;;;;;17.70;9.20;;;6.30;99.90;;;;;;4947299;29;20027;-78
2023/01/26 00:05:44;;;;;;;20.55;9.27;;;6.40;99.90;;;;;;4943029;29;20067;-80
2023/01/26 00:08:11;;;;;;;16.73;9.50;;;6.40;99.90;;;;;;4945799;28;20031;-79
2023/01/26 00:10:38;;;;;;;16.55;9.25;;;6.30;99.90;;;;;;4943031;28;20068;-79
2023/01/26 00:13:05;;;;;;;17.23;8.63;;;6.40;99.90;;;;;;4946546;28;20039;-79
2023/01/26 00:15:34;;;;;;;18.88;8.20;;;6.40;99.90;;;;;;4927352;29;20131;-79
2023/01/26 00:18:01;;;;;;;17.98;7.80;;;6.40;99.90;;;;;;4950867;28;20557;-79
2023/01/26 00:20:27;;;;;;;19.58;7.97;;;6.40;99.90;;;;;;4952097;28;20047;-79
2023/01/26 00:22:53;;;;;;;17.10;7.30;;;6.40;99.90;;;;;;4928180;28;20440;-79
2023/01/26 00:25:19;;;;;;;21.90;7.90;;;6.40;99.90;;;;;;4940405;28;20038;-79
2023/01/26 00:27:45;;;;;;;13.45;7.03;;;6.40;99.90;;;;;;4945960;29;20098;-79
2023/01/26 00:30:11;;;;;;;13.35;6.43;;;6.40;99.90;;;;;;4943405;28;20075;-79
2023/01/26 00:32:37;;;;;;;14.65;5.97;;;6.30;99.90;;;;;;4944108;28;20623;-80
2023/01/26 00:35:04;;;;;;;15.02;5.80;;;6.30;99.90;;;;;;4945480;29;20028;-80
2023/01/26 00:37:30;;;;;;;14.65;5.78;;;6.20;99.90;;;;;;4944553;28;20035;-79
2023/01/26 00:39:55;;;;;;;14.38;5.10;;;6.10;99.90;;;;;;4945103;29;20054;-79
2023/01/26 00:42:22;;;;;;;15.80;5.55;;;6.00;99.90;;;;;;4945645;28;20439;-79
2023/01/26 00:44:48;;;;;;;9.65;4.75;;;5.90;99.90;;;;;;4944271;29;20077;-79
2023/01/26 00:47:14;;;;;;;12.23;5.07;;;5.80;99.90;;;;;;4946176;28;20035;-79
2023/01/26 00:49:40;;;;;;;11.88;4.82;;;5.70;99.90;;;;;;4927411;29;20085;-79
2023/01/26 00:52:06;;;;;;;13.65;4.57;;;5.60;99.90;;;;;;4939601;29;20114;-79
2023/01/26 00:54:32;;;;;;;15.32;4.03;;;5.50;99.90;;;;;;4927683;29;20039;-80
2023/01/26 00:56:57;;;;;;;10.68;3.38;;;5.30;99.90;;;;;;4929437;29;20181;-79
2023/01/26 00:59:23;;;;;;;8.30;3.20;;;5.20;99.90;;;;;;4927694;29;20036;-80
2023/01/26 01:01:49;;;;;;;11.30;3.38;;;5.10;99.90;;;;;;4923927;29;20502;-79
2023/01/26 01:04:15;;;;;;;9.73;2.67;;;5.00;99.90;;;;;;4926184;29;20030;-79
2023/01/26 01:06:41;;;;;;;8.63;3.00;;;4.90;99.90;;;;;;4933780;29;20047;-79
2023/01/26 01:09:07;;;;;;;9.85;3.15;;;4.80;99.90;;;;;;4922148;29;20315;-79
2023/01/26 01:11:33;;;;;;;7.80;2.20;;;4.70;99.90;;;;;;4926871;29;20046;-79
2023/01/26 01:13:58;;;;;;;11.35;2.38;;;4.60;99.90;;;;;;4938979;29;20039;-79
2023/01/26 01:16:24;;;;;;;7.82;2.38;;;4.60;99.90;;;;;;4935028;29;20087;-79
2023/01/26 01:18:53;;;;;;;12.75;2.80;;;4.50;99.90;;;;;;4945493;28;20403;-79
2023/01/26 01:21:19;;;;;;;8.98;3.17;;;4.70;99.90;;;;;;4940329;28;20459;-79
2023/01/26 01:23:45;;;;;;;14.70;2.80;;;4.70;99.90;;;;;;4924652;29;20035;-79
2023/01/26 01:26:12;;;;;;;9.40;2.70;;;4.80;99.90;;;;;;4920105;29;20050;-79
2023/01/26 01:28:39;;;;;;;8.43;3.08;;;4.90;99.90;;;;;;4943508;28;20780;-80
2023/01/26 01:31:10;;;;;;;11.75;2.95;;;5.00;99.90;;;;;;4945702;28;20071;-79
2023/01/26 01:33:36;;;;;;;10.40;2.70;;;5.00;99.90;;;;;;4940008;29;20534;-80
2023/01/26 01:36:07;;;;;;;8.57;2.25;;;5.10;99.90;;;;;;4940903;29;20068;-79
2023/01/26 01:38:33;;;;;;;;;;;5.20;99.90;;;;;;4938117;29;20045;-79
2023/01/26 01:40:59;;;;;;;12.80;2.30;;;5.20;99.90;;;;;;4948727;28;20015;-79
2023/01/26 01:43:25;;;;;;;8.00;1.88;;;5.30;99.90;;;;;;4947456;29;20047;-79
2023/01/26 01:45:52;;;;;;;12.48;2.30;;;5.30;99.90;;;;;;4948220;28;20130;-80
2023/01/26 01:48:26;;;;;;;12.55;3.25;;;5.40;99.90;;;;;;4933428;29;20519;-79
2023/01/26 01:50:56;;;;;;;13.60;2.03;;;5.40;99.90;;;;;;4930188;29;20111;-79
2023/01/26 01:53:31;;;;;;;16.90;2.67;;;5.40;99.90;;;;;;4911780;29;20411;-80
2023/01/26 01:56:01;;;;;;;12.90;2.90;;;5.40;99.90;;;;;;4938622;29;20055;-79
2023/01/26 01:58:29;;;;;;;5.00;1.90;;;5.40;99.90;;;;;;4949912;29;20487;-79
2023/01/26 02:00:57;;;;;;;10.57;2.40;;;5.40;99.90;;;;;;4928688;29;20111;-79
2023/01/26 02:03:24;;;;;;;11.63;2.28;;;5.40;99.90;;;;;;4930178;29;20541;-80
2023/01/26 02:05:59;;;;;;;9.73;2.03;;;5.40;99.90;;;;;;4947410;28;20071;-80
2023/01/26 02:08:35;;;;;;;11.55;2.00;;;5.30;99.90;;;;;;4931832;29;20497;-79
2023/01/26 02:11:06;;;;;;;8.23;2.08;;;5.30;99.90;;;;;;4946506;28;20314;-79
2023/01/26 02:13:33;;;;;;;10.10;2.13;;;5.20;99.90;;;;;;4938725;29;20035;-79
2023/01/26 02:15:59;;;;;;;6.90;1.83;;;5.20;99.90;;;;;;4939217;29;20382;-79
2023/01/26 02:18:25;;;;;;;12.00;2.53;;;5.10;99.90;;;;;;4935893;29;20032;-79
2023/01/26 02:20:55;;;;;;;7.35;1.75;;;4.90;99.90;;;;;;4941306;29;20050;-79
2023/01/26 02:23:40;;;;;;;16.70;2.58;;;4.80;99.90;;;;;;4947918;28;20027;-79
2023/01/26 02:26:27;;;;;;;14.63;2.33;;;4.70;99.90;;;;;;4929327;28;20126;-79
2023/01/26 02:28:52;;;;;;;11.93;2.60;;;4.80;99.90;;;;;;4930041;29;20055;-79
2023/01/26 02:31:18;;;;;;;14.68;2.03;;;4.90;99.90;;;;;;4944183;29;20130;-79
2023/01/26 02:33:44;;;;;;;11.40;1.92;;;4.90;99.90;;;;;;4928314;29;20042;-79
2023/01/26 02:36:21;;;;;;;11.55;2.35;;;4.90;99.90;;;;;;4948149;28;20035;-79
2023/01/26 02:39:21;;;;;;;8.43;2.08;;;5.00;99.90;;;;;;4947912;29;20448;-79
2023/01/26 02:44:33;;;;;;;10.57;2.10;;;5.20;99.90;;;;;;4944581;28;20446;-79
2023/01/26 02:46:59;;;;;;;13.63;1.95;;;5.20;99.90;;;;;;4927930;28;20039;-79
2023/01/26 02:52:08;;;;;;;9.63;2.00;;;5.10;99.90;;;;;;4946211;28;20101;-78
2023/01/26 02:57:18;;;;;;;11.00;2.42;;;4.90;99.90;;;;;;4927738;29;20055;-79
2023/01/26 02:59:44;;;;;;;15.15;2.45;;;4.90;99.90;;;;;;4926907;29;20035;-79
2023/01/26 03:02:09;;;;;;;15.40;2.75;;;4.80;99.90;;;;;;4925626;29;20518;-79
2023/01/26 03:04:35;;;;;;;17.80;2.30;;;4.70;99.90;;;;;;4925533;29;20434;-80
2023/01/26 03:07:01;;;;;;;12.10;2.28;;;4.80;99.90;;;;;;4944087;28;20406;-79
2023/01/26 03:09:26;;;;;;;9.88;2.17;;;4.70;99.90;;;;;;4927202;29;20395;-80
2023/01/26 03:11:52;;;;;;;15.00;2.75;;;4.60;99.90;;;;;;4946009;28;20430;-79
2023/01/26 03:14:17;;;;;;;13.85;2.72;;;4.50;99.90;;;;;;4930085;28;20078;-79
2023/01/26 03:16:43;;;;;;;10.10;2.20;;;4.50;99.90;;;;;;4926465;29;20050;-79
2023/01/26 03:27:28;;;;;;;10.27;2.65;;;4.50;99.90;;;;;;4938980;29;20046;-80
2023/01/26 03:29:56;;;;;;;13.35;2.97;;;4.40;99.90;;;;;;4925573;29;20639;-80
2023/01/26 03:32:22;;;;;;;9.52;2.65;;;4.50;99.90;;;;;;4943792;28;20054;-79
2023/01/26 03:34:48;;;;;;;18.30;3.22;;;4.50;99.90;;;;;;4927665;28;20035;-80
2023/01/26 03:37:13;;;;;;;14.13;3.38;;;4.60;99.90;;;;;;4930733;29;20072;-79
2023/01/26 03:56:18;;;;;;;10.25;3.25;;;4.40;99.90;;;;;;4944735;29;20066;-79
2023/01/26 03:59:11;;;;;;;13.88;3.95;;;4.30;99.90;;;;;;4942954;29;20097;-79
2023/01/26 04:01:40;;;;;;;10.35;3.85;;;4.30;99.90;;;;;;4940945;28;20527;-79
2023/01/26 04:09:38;;;;;;;12.35;3.75;;;4.30;99.90;;;;;;4945000;29;20034;-79
2023/01/26 04:12:04;;;;;;;13.95;3.85;;;4.30;99.90;;;;;;4943563;28;20039;-79
2023/01/26 04:22:43;;;;;;;16.30;4.57;;;4.10;99.90;;;;;;4929773;28;20087;-79
2023/01/26 04:25:14;;;;;;;11.85;4.30;;;4.10;99.90;;;;;;4925080;29;20078;-78
2023/01/26 04:27:41;;;;;;;9.85;4.57;;;4.00;99.90;;;;;;4929813;29;20059;-79
2023/01/26 04:30:09;;;;;;;21.77;4.75;;;4.10;99.90;;;;;;4925447;29;20043;-79
2023/01/26 04:32:34;;;;;;;13.95;4.72;;;4.10;99.90;;;;;;4927063;29;20138;-78
2023/01/26 04:35:00;;;;;;;16.13;5.03;;;4.20;99.90;;;;;;4944167;28;20403;-78
2023/01/26 04:37:26;;;;;;;22.38;5.15;;;4.30;99.90;;;;;;4944083;28;20038;-78
2023/01/26 04:39:51;;;;;;;23.45;4.72;;;4.30;99.90;;;;;;4945137;29;20033;-78
2023/01/26 04:42:17;;;;;;;17.15;5.03;;;4.30;99.90;;;;;;4942798;28;20039;-78
2023/01/26 04:44:43;;;;;;;16.48;4.75;;;4.50;99.90;;;;;;4936448;28;20035;-78
2023/01/26 04:47:08;;;;;;;15.50;3.90;;;4.50;99.90;;;;;;4916307;29;20051;-78
2023/01/26 04:49:34;;;;;;;18.25;4.90;;;4.40;99.90;;;;;;4942307;28;20467;-78
2023/01/26 04:51:59;;;;;;;8.75;4.18;;;4.40;99.90;;;;;;4927116;28;20518;-78
2023/01/26 04:54:25;;;;;;;12.88;4.22;;;4.40;99.90;;;;;;4935423;29;20035;-80
2023/01/26 04:56:51;;;;;;;15.20;4.82;;;4.30;99.90;;;;;;4936805;29;20066;-80
2023/01/26 04:59:16;;;;;;;15.13;4.45;;;4.20;99.90;;;;;;4925290;29;20195;-80
2023/01/26 05:01:42;;;;;;;12.98;4.45;;;4.20;99.90;;;;;;4940730;28;20607;-80
2023/01/26 05:04:10;;;;;;;17.33;5.72;;;4.10;99.90;;;;;;4929202;29;20084;-79
2023/01/26 05:06:37;;;;;;;11.68;4.72;;;4.10;99.90;;;;;;4940892;29;20051;-77
2023/01/26 05:09:03;;;;;;;12.27;4.43;;;4.00;99.90;;;;;;4940354;28;20118;-80
2023/01/26 05:11:29;;;;;;;10.70;4.43;;;3.90;99.90;;;;;;4933433;28;20163;-79
2023/01/26 05:13:54;;;;;;;9.95;4.30;;;3.90;99.90;;;;;;4926980;29;20138;-79
2023/01/26 05:16:20;;;;;;;14.13;4.45;;;3.80;99.90;;;;;;4930290;29;20439;-79
2023/01/26 05:18:46;;;;;;;12.32;4.75;;;3.80;99.90;;;;;;4946742;28;20786;-79
2023/01/26 05:21:11;;;;;;;17.20;4.40;;;3.70;99.90;;;;;;4943783;28;20133;-80
2023/01/26 05:23:37;;;;;;;17.45;5.20;;;3.70;99.90;;;;;;4947287;28;20024;-79
2023/01/26 05:26:03;;;;;;;14.45;5.32;;;3.60;99.90;;;;;;4943440;29;20182;-79
2023/01/26 05:28:29;;;;;;;18.17;4.90;;;3.60;99.90;;;;;;4935706;29;20618;-79
2023/01/26 05:30:55;;;;;;;21.13;4.55;;;3.60;99.90;;;;;;4929943;29;20134;-79
2023/01/26 05:33:21;;;;;;;14.10;4.13;;;3.60;99.90;;;;;;4940004;28;20467;-80
2023/01/26 05:35:50;;;;;;;12.43;3.70;;;3.50;99.90;;;;;;4933567;28;20041;-79
2023/01/26 05:38:16;;;;;;;16.63;4.05;;;3.40;99.90;;;;;;4933851;29;20539;-79
2023/01/26 05:40:42;;;;;;;10.82;4.28;;;3.30;99.90;;;;;;4947388;29;20035;-80
2023/01/26 05:43:07;;;;;;;12.43;3.80;;;3.20;99.90;;;;;;4946213;28;20554;-79
2023/01/26 05:45:34;;;;;;;13.77;4.22;;;3.20;99.90;;;;;;4947011;28;20087;-79
2023/01/26 05:48:00;;;;;;;9.82;3.80;;;3.20;99.90;;;;;;4946914;28;20126;-79
2023/01/26 05:50:26;;;;;;;10.82;4.07;;;3.10;99.90;;;;;;4945408;28;20103;-79
2023/01/26 05:52:51;;;;;;;11.25;3.88;;;3.00;99.90;;;;;;4944650;28;20037;-79
2023/01/26 05:55:17;;;;;;;11.77;5.03;;;3.00;99.90;;;;;;4929582;29;20356;-78
2023/01/26 05:57:43;;;;;;;12.68;3.97;;;3.00;99.90;;;;;;4946164;29;20042;-79
2023/01/26 06:00:11;;;;;;;16.73;3.47;;;2.90;99.90;;;;;;4928243;29;20031;-80
2023/01/26 06:02:36;;;;;;;16.48;4.68;;;2.90;99.90;;;;;;4947779;28;20399;-79
2023/01/26 06:05:03;;;;;;;12.40;4.22;;;2.80;99.90;;;;;;4938477;29;20038;-80
2023/01/26 06:07:28;;;;;;;14.30;4.18;;;2.80;99.90;;;;;;4941733;28;20038;-79
2023/01/26 06:09:54;;;;;;;11.55;3.35;;;2.70;99.90;;;;;;4929054;29;20078;-79
2023/01/26 06:12:20;;;;;;;11.73;3.38;;;2.60;99.90;;;;;;4927262;29;20550;-79
2023/01/26 06:14:46;;;;;;;14.02;3.90;;;2.60;99.90;;;;;;4940565;28;20578;-79
2023/01/26 06:17:14;;;;;;;11.32;3.60;;;2.50;99.90;;;;;;4925494;28;20036;-79
2023/01/26 06:19:40;;;;;;;6.10;3.10;;;2.50;99.90;;;;;;4946076;29;20087;-79
2023/01/26 06:22:12;;;;;;;8.52;3.67;;;2.50;99.90;;;;;;4928827;29;20191;-79
2023/01/26 06:24:38;;;;;;;12.77;3.40;;;2.40;99.90;;;;;;4945469;28;20039;-79
2023/01/26 06:27:07;;;;;;;16.70;4.50;;;2.40;99.90;;;;;;4946558;28;20392;-80
2023/01/26 06:29:33;;;;;;;13.00;3.40;;;2.40;99.90;;;;;;4965405;28;20097;-79
2023/01/26 06:31:59;;;;;;;10.20;3.13;;;2.30;99.90;;;;;;4945932;28;20122;-79
2023/01/26 06:34:25;;;;;;;9.45;3.10;;;2.30;99.90;;;;;;4946248;29;20126;-80
2023/01/26 06:36:50;;;;;;;9.57;3.25;;;2.30;99.90;;;;;;4945051;29;20475;-79
2023/01/26 06:39:16;;;;;;;12.00;3.70;;;2.30;99.90;;;;;;4946210;28;20133;-80
2023/01/26 06:41:43;;;;;;;12.75;3.03;;;2.30;99.90;;;;;;4927549;29;20286;-79
2023/01/26 06:44:09;;;;;;;11.02;3.60;;;2.30;99.90;;;;;;4928563;28;20405;-79
2023/01/26 06:46:35;;;;;;;11.35;3.75;;;2.30;99.90;;;;;;4945748;28;20055;-79
2023/01/26 06:49:02;;;;;;;8.73;3.05;;;2.20;99.90;;;;;;4926998;29;20194;-80
2023/01/26 06:51:44;;;;;;;15.38;3.67;;;2.20;99.90;;;;;;4931021;28;20031;-79
2023/01/26 06:54:11;;;;;;;10.63;3.22;;;2.30;99.90;;;;;;4914611;29;20063;-80
2023/01/26 06:56:37;;;;;;;10.75;3.42;;;2.30;99.90;;;;;;4935865;29;20477;-79
2023/01/26 06:59:04;;;;;;;7.35;3.03;;;2.40;99.90;;;;;;4917538;28;20041;-79
2023/01/26 07:01:35;;;;;;;15.55;3.38;;;2.50;99.90;;;;;;4945141;28;20037;-79
2023/01/26 07:04:01;;;;;;;11.02;3.00;;;2.70;99.90;;;;;;4945781;28;20039;-79
2023/01/26 07:06:27;;;;;;;11.40;2.65;;;2.80;99.90;;;;;;4945011;29;20039;-79
2023/01/26 07:08:52;;;;;;;11.32;2.92;;;2.90;99.90;;;;;;4926170;29;20086;-79
2023/01/26 07:11:19;;;;;;;8.80;2.85;;;3.00;99.90;;;;;;4945031;28;20042;-79
2023/01/26 07:13:45;;;;;;;12.77;3.17;;;3.10;99.90;;;;;;4926047;28;20033;-79
2023/01/26 07:16:13;;;;;;;14.90;3.17;;;3.20;99.90;;;;;;4934800;29;20035;-79
2023/01/26 07:18:39;;;;;;;9.98;2.67;;;3.30;99.90;;;;;;4927766;29;20066;-79
2023/01/26 07:21:08;;;;;;;9.20;3.15;;;3.40;99.90;;;;;;4920703;29;20079;-80
2023/01/26 07:23:34;;;;;;;7.78;2.20;;;3.50;99.90;;;;;;4944280;28;20474;-79
2023/01/26 07:25:59;;;;;;;10.85;2.38;;;3.60;99.90;;;;;;4942463;28;20248;-79
2023/01/26 07:28:25;;;;;;;13.18;2.47;;;3.70;99.90;;;;;;4939569;28;20027;-80
2023/01/26 07:30:52;;;;;;;11.98;2.55;;;3.70;99.90;;;;;;4923187;29;20038;-79
2023/01/26 07:33:18;;;;;;;13.00;3.13;;;3.80;99.90;;;;;;4925246;29;20066;-79
2023/01/26 07:35:44;;;;;;;11.50;2.20;;;3.90;99.90;;;;;;4926750;29;20121;-79
2023/01/26 07:38:09;;;;;;;8.73;2.13;;;4.00;99.90;;;;;;4945634;29;20495;-79
2023/01/26 07:40:35;;;;;;;15.55;2.00;;;4.00;99.90;;;;;;4940978;28;20043;-79
2023/01/26 07:43:01;;;;;;;18.85;3.60;;;4.10;99.90;;;;;;4944211;28;20035;-79
2023/01/26 07:45:27;;;;;;;12.55;2.90;;;4.20;99.90;;;;;;4937330;29;20035;-80
2023/01/26 07:47:56;;;;;;;17.92;2.42;;;4.30;99.90;;;;;;4917573;29;20039;-79
2023/01/26 07:50:23;;;;;;;17.70;2.65;;;4.40;99.90;;;;;;4936867;28;20441;-79
2023/01/26 07:52:51;;;;;;;11.02;2.53;;;4.40;99.90;;;;;;4936513;28;20031;-80
2023/01/26 07:55:19;;;;;;;11.30;1.90;;;4.50;99.90;;;;;;4941470;28;20023;-79
2023/01/26 07:57:47;;;;;;;16.42;3.03;;;4.60;99.90;;;;;;4926046;29;20081;-80
2023/01/26 08:00:13;;;;;;;9.30;2.30;;;4.60;99.90;;;;;;4942290;29;20031;-79
2023/01/26 08:02:39;;;;;;;8.10;3.13;;;4.70;99.90;;;;;;4942863;28;20047;-79
2023/01/26 08:05:05;;;;;;;16.17;2.63;;;4.80;99.90;;;;;;4944528;28;20549;-79
2023/01/26 08:07:31;;;;;;;13.73;2.90;;;4.80;99.90;;;;;;4952787;28;20043;-79
2023/01/26 08:09:58;;;;;;;10.35;2.80;;;4.90;99.90;;;;;;4925132;29;20034;-78
2023/01/26 08:12:24;;;;;;;13.43;2.78;;;5.00;99.90;;;;;;4924304;29;20027;-79
2023/01/26 08:14:49;;;;;;;16.65;3.63;;;5.00;99.90;;;;;;4941859;28;20456;-78
2023/01/26 08:17:16;;;;;;;15.52;3.10;;;5.00;99.90;;;;;;4921920;29;20070;-79
2023/01/26 08:19:42;;;;;;;8.45;2.60;;;5.10;99.90;;;;;;4941883;29;20064;-78
2023/01/26 08:22:08;;;;;;;11.77;3.33;;;5.20;99.90;;;;;;4938971;29;20054;-78
2023/01/26 08:24:34;;;;;;;14.32;2.95;;;5.30;99.90;;;;;;4940206;28;20741;-78
2023/01/26 08:26:59;;;;;;;12.85;3.03;;;5.40;99.90;;;;;;4927864;29;20047;-79
2023/01/26 08:29:25;;;;;;;16.45;2.80;;;5.50;99.90;;;;;;4917007;29;20074;-78
2023/01/26 08:31:50;;;;;;;13.70;2.80;;;5.60;99.90;;;;;;4938753;28;20109;-78
2023/01/26 08:34:16;;;;;;;12.40;2.78;;;5.60;99.90;;;;;;4940576;28;20535;-78
2023/01/26 08:36:42;;;;;;;10.00;3.15;;;5.70;99.90;;;;;;4924186;29;20281;-78
2023/01/26 08:39:08;;;;;;;12.82;3.00;;;5.80;99.90;;;;;;4916820;29;20036;-79
2023/01/26 08:41:33;;;;;;;10.73;2.90;;;5.80;99.90;;;;;;4937848;29;20035;-78
2023/01/26 08:43:59;;;;;;;15.30;3.08;;;5.80;99.90;;;;;;4921256;29;20045;-79
2023/01/26 08:46:25;;;;;;;38.05;15.25;;;5.80;99.90;;;;;;4925002;29;20475;-79
2023/01/26 08:48:51;;;;;;;35.75;12.63;;;5.90;99.90;;;;;;4927174;29;20031;-78
2023/01/26 08:51:17;;;;;;;11.07;3.85;;;6.00;99.90;;;;;;4945077;28;20046;-79
2023/01/26 08:53:42;;;;;;;11.23;2.83;;;6.00;99.90;;;;;;4924143;29;20028;-79
2023/01/26 08:56:11;;;;;;;11.40;2.80;;;6.10;99.90;;;;;;4940807;28;20378;-79
2023/01/26 08:58:36;;;;;;;11.50;2.50;;;6.30;99.90;;;;;;4934284;29;20047;-79
2023/01/26 09:01:07;;;;;;;7.55;2.70;;;6.30;99.90;;;;;;4933803;28;20585;-79
2023/01/26 09:03:33;;;;;;;16.17;2.60;;;6.40;99.90;;;;;;4933970;29;20114;-79
2023/01/26 09:06:00;;;;;;;9.45;2.55;;;6.40;99.90;;;;;;4928890;29;20070;-78
2023/01/26 09:08:26;;;;;;;10.90;2.80;;;6.50;99.90;;;;;;4930076;29;20486;-79
2023/01/26 09:10:51;;;;;;;10.63;2.65;;;6.60;99.90;;;;;;4931870;29;20266;-79
2023/01/26 09:13:17;;;;;;;318.48;144.52;;;6.70;99.90;;;;;;4933478;28;20494;-78
2023/01/26 09:15:42;;;;;;;19.83;6.43;;;6.80;99.90;;;;;;4937022;29;20035;-78
2023/01/26 09:18:09;;;;;;;7.57;2.20;;;6.90;99.90;;;;;;4935807;28;20035;-78
2023/01/26 09:20:37;;;;;;;12.95;3.10;;;7.00;99.90;;;;;;4946643;28;20537;-78
2023/01/26 09:23:03;;;;;;;12.02;2.92;;;7.20;99.90;;;;;;4944034;28;20123;-78
2023/01/26 09:25:29;;;;;;;13.80;2.83;;;7.30;99.90;;;;;;4925429;28;20101;-78
2023/01/26 09:27:54;;;;;;;17.65;6.75;;;7.70;99.90;;;;;;4924328;29;20035;-78
2023/01/26 09:30:20;;;;;;;9.38;2.58;;;8.30;99.90;;;;;;4934072;28;20147;-79
2023/01/26 09:32:46;;;;;;;10.30;2.78;;;8.90;99.90;;;;;;4944775;28;20035;-78
2023/01/26 09:35:12;;;;;;;9.18;2.55;;;9.20;99.90;;;;;;4944071;28;20436;-78
2023/01/26 09:37:38;;;;;;;7.68;2.70;;;9.40;99.40;;;;;;4945167;28;20117;-78
2023/01/26 09:40:05;;;;;;;11.02;2.45;;;9.70;98.50;;;;;;4941403;28;20130;-78
2023/01/26 09:42:45;;;;;;;63.88;28.70;;;9.90;91.20;;;;;;4937550;29;20462;-78
2023/01/26 09:45:11;;;;;;;10.57;2.63;;;9.70;93.20;;;;;;4937132;29;20027;-78
2023/01/26 09:48:04;;;;;;;9.95;2.28;;;9.70;92.80;;;;;;4923583;28;20296;-79
2023/01/26 09:50:47;;;;;;;9.45;2.53;;;10.30;88.60;;;;;;4933627;28;20035;-78
2023/01/26 09:53:25;;;;;;;8.80;2.45;;;10.70;88.10;;;;;;4912730;29;20130;-78
2023/01/26 09:55:52;;;;;;;9.27;2.50;;;11.40;81.20;;;;;;4929345;28;20023;-78
2023/01/26 09:58:25;;;;;;;10.10;2.05;;;12.20;76.50;;;;;;4938830;28;20137;-78
2023/01/26 10:00:59;;;;;;;9.75;2.10;;;13.00;70.60;;;;;;4939954;28;20082;-77
2023/01/26 10:03:40;;;;;;;10.55;2.13;;;13.20;69.20;;;;;;4932574;28;20027;-77
2023/01/26 10:06:15;;;;;;;8.60;2.17;;;13.70;68.40;;;;;;4926531;29;20197;-78
2023/01/26 10:08:44;;;;;;;9.20;1.90;;;13.90;63.60;;;;;;4924762;28;20407;-79
2023/01/26 10:11:12;;;;;;;9.07;2.08;;;13.90;62.90;;;;;;4940643;28;20118;-77
2023/01/26 10:13:39;;;;;;;9.45;2.10;;;12.90;64.30;;;;;;4942042;28;20035;-77
2023/01/26 10:16:10;;;;;;;8.20;2.30;;;12.20;67.90;;;;;;4924255;29;20028;-78
2023/01/26 10:18:43;;;;;;;;;;;11.40;72.90;;;;;;4934638;28;20390;-77
2023/01/26 10:21:11;;;;;;;7.32;2.10;;;10.80;77.40;;;;;;4919370;29;20414;-77
2023/01/26 10:23:45;;;;;;;12.93;2.35;;;10.30;85.90;;;;;;4930292;28;20023;-77
2023/01/26 10:26:15;;;;;;;8.93;2.53;;;10.10;84.80;;;;;;4930065;28;20387;-76
2023/01/26 10:28:42;;;;;;;9.25;2.45;;;9.70;91.00;;;;;;4911873;29;20120;-76
2023/01/26 10:31:16;;;;;;;12.75;2.97;;;9.80;94.80;;;;;;4931485;28;20040;-77
2023/01/26 10:33:51;;;;;;;8.77;2.42;;;9.70;93.80;;;;;;4936363;28;20454;-77
2023/01/26 10:36:16;;;;;;;11.48;2.35;;;9.50;94.10;;;;;;4600369;28;10000574;-77
2023/01/26 10:38:43;;;;;;;11.95;2.63;;;9.60;97.40;;;;;;4944316;28;20158;-78
2023/01/26 10:41:18;;;;;;;10.02;2.70;;;9.40;92.30;;;;;;4928107;29;20054;-76
2023/01/26 10:44:24;;;;;;;10.15;2.60;;;9.40;96.20;;;;;;4926192;29;20435;-77
2023/01/26 10:47:18;;;;;;;6.35;2.22;;;9.50;98.40;;;;;;4919515;29;20093;-77
2023/01/26 10:49:44;;;;;;;9.45;3.05;;;9.60;94.50;;;;;;4921760;29;20031;-77
2023/01/26 10:52:21;;;;;;;8.70;2.92;;;9.50;95.30;;;;;;4937455;28;20039;-76
2023/01/26 10:54:50;;;;;;;11.38;3.13;;;9.50;96.70;;;;;;4911657;29;20414;-77
2023/01/26 10:57:31;;;;;;;13.93;3.30;;;9.40;94.10;;;;;;4927616;29;20051;-77
2023/01/26 11:00:00;;;;;;;10.88;2.85;;;9.60;96.70;;;;;;4942256;28;20595;-77
2023/01/26 11:02:30;;;;;;;17.48;5.18;;;10.00;93.10;;;;;;4944290;28;20043;-77
2023/01/26 11:05:08;;;;;;;9.65;3.42;;;9.90;91.40;;;;;;4938348;29;20475;-76
2023/01/26 11:07:40;;;;;;;10.40;3.75;;;9.60;91.40;;;;;;4941275;29;20097;-77
2023/01/26 11:10:20;;;;;;;14.05;3.95;;;9.40;92.50;;;;;;4942329;28;20046;-78
2023/01/26 11:12:46;;;;;;;13.73;3.85;;;9.10;97.40;;;;;;4919608;29;20035;-78
2023/01/26 11:15:16;;;;;;;13.40;4.00;;;9.00;99.90;;;;;;4914133;29;20039;-77
2023/01/26 11:17:47;;;;;;;14.05;3.60;;;9.00;99.90;;;;;;4925913;29;20042;-78
2023/01/26 11:20:32;;;;;;;;;;;9.00;98.20;;;;;;4940739;29;20051;-77
2023/01/26 11:23:17;;;;;;;12.57;3.75;;;8.90;99.90;;;;;;4943953;28;20315;-78
2023/01/26 11:25:43;;;;;;;9.70;3.80;;;9.10;97.70;;;;;;4945882;28;20042;-77
2023/01/26 11:28:33;;;;;;;10.43;3.65;;;9.20;95.40;;;;;;4945815;28;20107;-77
2023/01/26 11:31:23;;;;;;;7.75;3.15;;;9.00;98.90;;;;;;4944161;29;20451;-76
2023/01/26 11:33:55;;;;;;;10.55;3.78;;;9.00;99.90;;;;;;4942195;28;20049;-77
2023/01/26 11:36:48;;;;;;;8.07;3.47;;;9.20;97.80;;;;;;4939878;29;20074;-78
2023/01/26 11:39:20;;;;;;;8.63;3.50;;;8.80;99.90;;;;;;4943335;28;20035;-78
2023/01/26 11:42:25;;;;;;;11.18;3.60;;;8.70;99.90;;;;;;4934550;28;20086;-78
2023/01/26 11:45:32;;;;;;;12.27;3.40;;;8.80;99.90;;;;;;4911608;29;20127;-77
2023/01/26 11:48:11;;;;;;;12.18;3.92;;;8.80;99.90;;;;;;4863349;29;20453;-78
2023/01/26 11:50:45;;;;;;;9.30;3.40;;;8.60;99.90;;;;;;4926368;29;20047;-78
2023/01/26 11:53:23;;;;;;;10.63;3.47;;;8.30;99.90;;;;;;4942788;28;20028;-77
2023/01/26 11:56:18;;;;;;;8.20;3.03;;;7.80;99.90;;;;;;4934984;29;20039;-79
2023/01/26 11:58:52;;;;;;;9.35;3.38;;;7.50;99.90;;;;;;4916594;29;20110;-79
2023/01/26 12:01:27;;;;;;;11.88;3.80;;;7.50;99.90;;;;;;4920019;29;20038;-78
2023/01/26 12:03:55;;;;;;;10.07;3.80;;;7.60;99.90;;;;;;4932201;29;20050;-79
2023/01/26 12:06:45;;;;;;;10.85;3.17;;;7.80;99.90;;;;;;4926235;29;20168;-79
2023/01/26 12:09:20;;;;;;;11.98;3.33;;;8.00;99.90;;;;;;4936207;29;20078;-79
2023/01/26 12:11:56;;;;;;;7.18;2.65;;;8.20;99.90;;;;;;4943756;28;20062;-78
2023/01/26 12:14:22;;;;;;;8.52;2.80;;;8.00;99.90;;;;;;4942940;28;20031;-79
2023/01/26 12:17:29;;;;;;;11.05;2.72;;;8.10;99.90;;;;;;4940748;29;20086;-79
2023/01/26 12:20:34;;;;;;;7.95;2.55;;;8.00;99.90;;;;;;4901831;28;20039;-79
2023/01/26 12:23:03;;;;;;;9.60;2.97;;;7.90;99.90;;;;;;4930762;28;20530;-79
2023/01/26 12:25:36;;;;;;;9.70;3.25;;;8.00;99.90;;;;;;4924636;29;20121;-79
2023/01/26 12:28:11;;;;;;;6.57;2.92;;;8.00;99.90;;;;;;4939704;28;20035;-79
2023/01/26 12:30:55;;;;;;;7.35;2.83;;;8.00;99.90;;;;;;4938906;28;20033;-78
2023/01/26 12:33:21;;;;;;;5.10;2.55;;;8.10;99.90;;;;;;4940936;28;20043;-78
2023/01/26 12:35:55;;;;;;;7.43;2.40;;;8.10;99.90;;;;;;4940439;29;20394;-78
2023/01/26 12:38:48;;;;;;;9.13;2.75;;;8.20;99.90;;;;;;4941812;28;20530;-77
2023/01/26 12:41:33;;;;;;;9.40;2.97;;;8.10;99.90;;;;;;4941100;28;20047;-77
2023/01/26 12:44:01;;;;;;;8.90;2.97;;;8.20;99.90;;;;;;4588633;28;10000538;-76
2023/01/26 12:46:31;;;;;;;7.70;2.88;;;8.20;99.90;;;;;;4919476;29;20086;-77
2023/01/26 12:49:04;;;;;;;10.35;2.70;;;8.20;99.90;;;;;;4939946;28;20708;-77
2023/01/26 12:51:37;;;;;;;10.25;2.95;;;8.30;99.90;;;;;;4940060;28;20094;-77
2023/01/26 12:54:33;;;;;;;9.57;2.45;;;8.50;99.90;;;;;;4927711;28;20470;-77
2023/01/26 12:57:03;;;;;;;7.18;1.77;;;8.40;99.90;;;;;;4939447;28;20045;-77
2023/01/26 12:59:36;;;;;;;5.85;2.20;;;8.40;99.90;;;;;;4942150;28;20031;-77
2023/01/26 13:02:21;;;;;;;7.28;2.00;;;8.40;99.90;;;;;;4940608;29;20391;-77
2023/01/26 13:04:49;;;;;;;6.40;1.98;;;8.30;99.90;;;;;;4937608;29;20038;-77
2023/01/26 13:07:38;;;;;;;8.90;1.83;;;8.30;99.90;;;;;;4943262;29;20425;-76
2023/01/26 13:10:13;;;;;;;11.25;2.03;;;8.50;99.90;;;;;;4924659;29;20443;-76
2023/01/26 13:12:54;;;;;;;6.35;1.83;;;8.50;99.90;;;;;;4930300;29;20034;-77
2023/01/26 13:15:22;;;;;;;8.23;2.00;;;8.50;99.90;;;;;;4927284;29;20483;-76
2023/01/26 13:17:51;;;;;;;10.85;1.83;;;8.40;99.90;;;;;;4944547;28;20291;-76
2023/01/26 13:20:35;;;;;;;9.10;1.75;;;8.40;99.90;;;;;;4943559;28;20185;-76
2023/01/26 13:23:01;;;;;;;8.27;1.70;;;8.30;99.90;;;;;;4944459;29;20031;-77
2023/01/26 13:25:31;;;;;;;4.95;1.38;;;8.30;99.90;;;;;;4944607;28;20041;-77
2023/01/26 13:28:11;;;;;;;7.10;1.85;;;8.10;99.90;;;;;;4927076;29;20035;-77
2023/01/26 13:30:45;;;;;;;8.83;1.80;;;8.10;99.90;;;;;;4926803;29;20400;-77
2023/01/26 13:33:20;;;;;;;7.80;1.73;;;8.10;99.90;;;;;;4943551;28;20295;-77
2023/01/26 13:35:47;;;;;;;6.65;1.20;;;8.20;99.90;;;;;;4939780;28;20046;-77
2023/01/26 13:38:26;;;;;;;12.45;1.48;;;8.30;99.90;;;;;;4947958;29;20039;-76
2023/01/26 13:40:52;;;;;;;5.50;1.40;;;8.20;99.90;;;;;;4946655;28;20124;-77
2023/01/26 13:43:31;;;;;;;8.35;1.25;;;8.20;99.90;;;;;;4947524;28;20031;-78
2023/01/26 13:46:08;;;;;;;6.75;1.52;;;8.40;99.90;;;;;;4930425;29;20063;-76
2023/01/26 13:48:47;;;;;;;6.70;1.35;;;8.30;99.90;;;;;;4929099;29;20054;-78
2023/01/26 13:51:17;;;;;;;10.88;1.95;;;8.30;99.90;;;;;;4928916;29;20028;-77